createdAt,value
2018-09-01T00:00:20.258Z,43.56
2018-09-01T00:05:24.055Z,44.02
2018-09-01T00:10:27.612Z,43.88
2018-09-01T00:15:31.205Z,44.01
2018-09-01T00:20:34.852Z,43.54
2018-09-01T00:25:38.446Z,43.89
2018-09-01T00:30:42.052Z,43.50
2018-09-01T00:35:45.674Z,44.02
2018-09-01T00:40:49.317Z,44.03
2018-09-01T00:45:52.948Z,43.54
2018-09-01T00:50:56.579Z,43.72
2018-09-01T00:56:00.202Z,43.98
2018-09-01T01:01:03.825Z,43.94
2018-09-01T01:06:07.460Z,43.94
2018-09-01T01:11:11.171Z,44.36
2018-09-01T01:16:14.989Z,44.04
2018-09-01T01:21:18.830Z,44.24
2018-09-01T01:26:22.485Z,44.24
2018-09-01T01:31:26.223Z,44.19
2018-09-01T01:36:29.838Z,44.43
2018-09-01T01:41:33.450Z,44.57
2018-09-01T01:46:37.110Z,44.02
2018-09-01T01:51:40.804Z,44.05
2018-09-01T01:56:44.498Z,44.41
2018-09-01T02:01:48.131Z,44.42
2018-09-01T02:06:52.701Z,44.64
2018-09-01T02:11:56.314Z,43.94
2018-09-01T02:16:59.899Z,44.44
2018-09-01T02:22:03.596Z,44.47
2018-09-01T02:27:07.255Z,44.34
2018-09-01T02:32:10.907Z,44.06
2018-09-01T02:37:14.714Z,44.61
2018-09-01T02:42:18.373Z,44.49
2018-09-01T02:47:21.966Z,44.30
2018-09-01T02:52:25.660Z,44.44
2018-09-01T02:57:29.284Z,44.46
2018-09-01T03:02:38.077Z,44.52
2018-09-01T03:07:41.698Z,44.66
2018-09-01T03:12:45.291Z,44.70
2018-09-01T03:17:48.956Z,44.65
2018-09-01T03:22:52.616Z,44.83
2018-09-01T03:27:56.953Z,44.89
2018-09-01T03:33:00.622Z,44.67
2018-09-01T03:38:04.255Z,44.89
2018-09-01T03:43:07.907Z,44.60
2018-09-01T03:48:11.562Z,44.69
2018-09-01T03:53:15.270Z,44.80
2018-09-01T03:58:18.865Z,44.81
2018-09-01T04:03:22.517Z,44.69
2018-09-01T04:08:26.114Z,44.98
2018-09-01T04:13:29.720Z,45.43
2018-09-01T04:18:33.405Z,44.77
2018-09-01T04:23:37.009Z,45.55
2018-09-01T04:28:40.590Z,45.34
2018-09-01T04:33:44.195Z,45.58
2018-09-01T04:38:47.811Z,45.76
2018-09-01T04:43:51.434Z,45.24
2018-09-01T04:48:55.086Z,45.69
2018-09-01T04:53:58.698Z,45.74
2018-09-01T04:59:02.407Z,45.36
2018-09-01T05:04:05.995Z,45.67
2018-09-01T05:09:09.706Z,45.82
2018-09-01T05:14:13.360Z,45.38
2018-09-01T05:19:16.982Z,45.93
2018-09-01T05:24:20.596Z,45.72
2018-09-01T05:29:24.228Z,45.54
2018-09-01T05:34:27.793Z,45.84
2018-09-01T05:39:31.395Z,45.96
2018-09-01T05:44:34.983Z,45.90
2018-09-01T05:49:38.610Z,45.64
2018-09-01T05:54:42.212Z,46.04
2018-09-01T05:59:45.831Z,45.75
2018-09-01T06:04:49.433Z,46.18
2018-09-01T06:09:53.004Z,46.44
2018-09-01T06:19:59.197Z,45.85
2018-09-01T06:25:02.892Z,46.00
2018-09-01T06:30:08.260Z,46.01
2018-09-01T06:35:11.865Z,45.90
2018-09-01T06:40:15.537Z,46.27
2018-09-01T06:45:19.135Z,45.96
2018-09-01T06:50:22.763Z,46.43
2018-09-01T06:55:26.368Z,46.22
2018-09-01T07:00:30.009Z,46.40
2018-09-01T07:05:33.585Z,47.05
2018-09-01T07:10:37.198Z,46.68
2018-09-01T07:15:40.787Z,46.79
2018-09-01T07:20:44.330Z,47.63
2018-09-01T07:25:47.963Z,47.54
2018-09-01T07:30:51.737Z,47.71
2018-09-01T07:35:55.239Z,47.54
2018-09-01T07:40:58.872Z,47.62
2018-09-01T07:46:02.502Z,47.76
2018-09-01T07:51:06.211Z,47.33
2018-09-01T07:56:09.921Z,47.38
2018-09-01T08:01:13.484Z,47.34
2018-09-01T08:06:17.084Z,47.40
2018-09-01T08:11:20.671Z,47.35
2018-09-01T08:16:24.281Z,47.83
2018-09-01T08:21:27.929Z,48.02
2018-09-01T08:26:31.578Z,47.87
2018-09-01T08:31:35.063Z,50.11
2018-09-01T08:36:38.635Z,53.26
2018-09-01T08:41:42.288Z,54.69
2018-09-01T08:46:45.961Z,52.96
2018-09-01T08:51:49.583Z,54.61
2018-09-01T08:56:53.598Z,57.00
2018-09-01T09:01:57.270Z,57.42
2018-09-01T09:07:00.849Z,54.70
2018-09-01T09:12:04.487Z,54.68
2018-09-01T09:17:08.158Z,52.65
2018-09-01T09:22:11.777Z,53.80
2018-09-01T09:27:15.351Z,52.19
2018-09-01T09:32:18.918Z,52.07
2018-09-01T09:37:22.477Z,50.54
2018-09-01T09:42:26.085Z,52.33
2018-09-01T09:47:29.787Z,50.10
2018-09-01T09:52:33.326Z,48.78
2018-09-01T09:57:36.872Z,50.90
2018-09-01T10:02:40.462Z,50.91
2018-09-01T10:07:44.001Z,49.57
2018-09-01T10:12:47.605Z,47.71
2018-09-01T10:17:51.270Z,46.08
2018-09-01T10:22:54.826Z,45.08
2018-09-01T10:28:00.273Z,46.00
2018-09-01T10:33:03.941Z,47.04
2018-09-01T10:38:07.573Z,45.47
2018-09-01T10:43:11.258Z,45.83
2018-09-01T10:48:14.846Z,44.92
2018-09-01T10:53:18.461Z,45.24
2018-09-01T10:58:22.282Z,44.61
2018-09-01T11:03:25.950Z,44.38
2018-09-01T11:08:29.598Z,45.13
2018-09-01T11:13:33.170Z,45.53
2018-09-01T11:18:36.718Z,45.28
2018-09-01T11:23:40.353Z,46.01
2018-09-01T11:28:44.486Z,44.56
2018-09-01T11:33:48.111Z,43.66
2018-09-01T11:38:51.764Z,44.18
2018-09-01T11:43:55.765Z,43.44
2018-09-01T11:48:59.341Z,43.06
2018-09-01T11:54:03.091Z,42.92
2018-09-01T11:59:07.069Z,42.46
2018-09-01T12:04:11.037Z,43.15
2018-09-01T12:09:14.748Z,43.87
2018-09-01T12:14:18.505Z,41.75
2018-09-01T12:19:22.419Z,41.59
2018-09-01T12:24:26.020Z,41.03
2018-09-01T12:29:29.615Z,40.91
2018-09-01T12:34:33.274Z,40.39
2018-09-01T12:39:36.939Z,40.36
2018-09-01T12:44:40.586Z,39.46
2018-09-01T12:49:44.214Z,39.26
2018-09-01T12:54:47.860Z,38.96
2018-09-01T12:59:51.513Z,39.01
2018-09-01T13:04:55.152Z,38.57
2018-09-01T13:09:58.769Z,39.24
2018-09-01T13:15:02.489Z,39.53
2018-09-01T13:20:06.082Z,39.25
2018-09-01T13:25:09.737Z,39.40
2018-09-01T13:30:13.537Z,40.02
2018-09-01T13:35:17.124Z,40.29
2018-09-01T13:40:20.773Z,40.32
2018-09-01T13:45:24.429Z,40.31
2018-09-01T13:50:28.069Z,40.33
2018-09-01T13:55:31.652Z,40.70
2018-09-01T14:00:35.246Z,40.75
2018-09-01T14:05:38.877Z,40.70
2018-09-01T14:10:42.461Z,41.04
2018-09-01T14:15:46.078Z,40.70
2018-09-01T14:20:49.646Z,41.22
2018-09-01T14:25:53.351Z,40.94
2018-09-01T14:30:56.983Z,41.37
2018-09-01T14:36:04.074Z,41.12
2018-09-01T14:41:04.638Z,41.32
2018-09-01T14:46:08.315Z,41.50
2018-09-01T14:51:12.164Z,41.53
2018-09-01T14:56:15.766Z,41.96
2018-09-01T15:01:19.424Z,41.37
2018-09-01T15:06:23.104Z,41.33
2018-09-01T15:11:33.039Z,41.67
2018-09-01T15:16:36.672Z,41.41
2018-09-01T15:21:40.231Z,41.99
2018-09-01T15:26:43.817Z,41.97
2018-09-01T15:31:47.440Z,41.68
2018-09-01T15:36:51.065Z,42.17
2018-09-01T15:41:54.725Z,42.13
2018-09-01T15:46:58.427Z,42.52
2018-09-01T15:52:01.980Z,42.54
2018-09-01T15:57:06.084Z,42.72
2018-09-01T16:02:09.719Z,43.01
2018-09-01T16:07:13.420Z,43.39
2018-09-01T16:12:17.084Z,43.73
2018-09-01T16:17:20.696Z,43.99
2018-09-01T16:22:24.345Z,43.97
2018-09-01T16:27:27.969Z,44.03
2018-09-01T16:32:31.585Z,43.89
2018-09-01T16:37:35.228Z,43.74
2018-09-01T16:42:38.821Z,44.09
2018-09-01T16:47:42.489Z,44.59
2018-09-01T16:52:46.146Z,44.28
2018-09-01T16:57:49.835Z,44.76
2018-09-01T17:02:56.931Z,44.54
2018-09-01T17:08:00.893Z,45.06
2018-09-01T17:13:04.730Z,44.97
2018-09-01T17:18:08.608Z,45.18
2018-09-01T17:23:12.391Z,45.16
2018-09-01T17:28:16.078Z,44.95
2018-09-01T17:33:20.257Z,45.01
2018-09-01T17:38:23.865Z,44.98
2018-09-01T17:43:27.567Z,45.20
2018-09-01T17:48:31.161Z,45.08
2018-09-01T17:53:34.841Z,45.20
2018-09-01T17:58:38.465Z,45.08
2018-09-01T18:03:42.057Z,44.64
2018-09-01T18:08:45.649Z,44.66
2018-09-01T18:13:49.963Z,44.53
2018-09-01T18:18:53.667Z,44.79
2018-09-01T18:23:57.238Z,44.63
2018-09-01T18:29:00.825Z,44.64
2018-09-01T18:34:04.465Z,44.66
2018-09-01T18:39:09.618Z,44.91
2018-09-01T18:44:13.831Z,44.34
2018-09-01T18:49:17.844Z,44.49
2018-09-01T18:54:21.450Z,44.55
2018-09-01T18:59:25.156Z,44.76
2018-09-01T19:04:28.833Z,44.57
2018-09-01T19:09:32.651Z,44.57
2018-09-01T19:14:37.519Z,44.71
2018-09-01T19:19:41.193Z,45.18
2018-09-01T19:24:44.885Z,44.77
2018-09-01T19:29:48.658Z,45.56
2018-09-01T19:34:52.381Z,45.26
2018-09-01T19:39:56.051Z,45.96
2018-09-01T19:45:00.001Z,45.88
2018-09-01T19:50:05.844Z,45.97
2018-09-01T19:55:09.784Z,46.26
2018-09-01T20:00:14.536Z,45.89
2018-09-01T20:05:18.252Z,46.34
2018-09-01T20:10:21.933Z,46.28
2018-09-01T20:15:25.655Z,46.35
2018-09-01T20:20:29.429Z,46.56
2018-09-01T20:25:33.142Z,46.33
2018-09-01T20:30:36.714Z,46.63
2018-09-01T20:35:45.487Z,47.01
2018-09-01T20:40:50.100Z,47.33
2018-09-01T20:45:53.739Z,47.21
2018-09-01T20:50:57.397Z,46.89
2018-09-01T20:56:01.007Z,46.94
2018-09-01T21:01:04.832Z,47.29
2018-09-01T21:06:08.904Z,47.51
2018-09-01T21:11:12.869Z,47.31
2018-09-01T21:16:17.331Z,47.22
2018-09-01T21:21:21.013Z,47.11
2018-09-01T21:26:24.769Z,47.41
2018-09-01T21:31:28.437Z,47.23
2018-09-01T21:36:32.044Z,47.24
2018-09-01T21:41:35.717Z,47.23
2018-09-01T21:46:39.432Z,47.67
2018-09-01T21:51:43.124Z,47.45
2018-09-01T21:56:46.856Z,47.09
2018-09-01T22:01:55.797Z,47.65
2018-09-01T22:06:59.411Z,47.16
2018-09-01T22:12:03.022Z,47.48
2018-09-01T22:17:06.667Z,47.60
2018-09-01T22:22:10.249Z,47.38
2018-09-01T22:27:13.805Z,47.45
2018-09-01T22:32:17.475Z,47.13
2018-09-01T22:37:21.039Z,47.37
2018-09-01T22:42:24.802Z,47.73
2018-09-01T22:47:30.295Z,47.39
2018-09-01T22:52:33.944Z,47.58
2018-09-01T22:57:37.613Z,47.67
2018-09-01T23:02:41.155Z,48.16
2018-09-01T23:07:44.797Z,47.77
2018-09-01T23:12:48.378Z,47.62
2018-09-01T23:17:51.992Z,47.89
2018-09-01T23:22:55.648Z,48.02
2018-09-01T23:27:59.308Z,47.41
2018-09-01T23:33:02.960Z,47.45
2018-09-01T23:38:06.684Z,48.05
2018-09-01T23:43:10.335Z,48.05
2018-09-01T23:48:13.977Z,48.16
2018-09-01T23:53:17.631Z,47.62
2018-09-01T23:58:21.217Z,47.67
